createdAt,value
2019-02-15T00:01:45.711Z,68.08
2019-02-15T00:04:15.161Z,67.55
2019-02-15T00:06:44.370Z,67.88
2019-02-15T00:09:13.890Z,67.82
2019-02-15T00:11:43.170Z,67.58
2019-02-15T00:14:12.900Z,67.67
2019-02-15T00:16:42.469Z,67.72
2019-02-15T00:19:24.528Z,67.89
2019-02-15T00:21:55.044Z,67.87
2019-02-15T00:24:24.280Z,67.93
2019-02-15T00:26:53.549Z,68.09
2019-02-15T00:29:22.765Z,68.17
2019-02-15T00:31:52.014Z,68.05
2019-02-15T00:34:21.260Z,68.18
2019-02-15T00:36:50.906Z,68.17
2019-02-15T00:39:20.112Z,68.27
2019-02-15T00:41:49.388Z,68.46
2019-02-15T00:44:19.930Z,68.42
2019-02-15T00:47:05.463Z,68.53
2019-02-15T00:49:52.928Z,68.62
2019-02-15T00:52:43.338Z,68.83
2019-02-15T00:55:31.910Z,68.81
2019-02-15T00:58:17.823Z,68.90
2019-02-15T01:01:18.633Z,68.94
2019-02-15T01:04:11.957Z,69.11
2019-02-15T01:06:52.485Z,68.89
2019-02-15T01:09:49.531Z,69.24
2019-02-15T01:12:29.026Z,69.68
2019-02-15T01:14:58.401Z,69.86
2019-02-15T01:17:27.649Z,69.87
2019-02-15T01:19:56.883Z,69.89
2019-02-15T01:22:26.538Z,69.76
2019-02-15T01:24:56.076Z,69.95
2019-02-15T01:27:34.306Z,70.08
2019-02-15T01:30:42.218Z,70.53
2019-02-15T01:33:22.693Z,70.04
2019-02-15T01:36:09.792Z,70.30
2019-02-15T01:39:07.254Z,70.53
2019-02-15T01:41:58.480Z,70.93
2019-02-15T01:44:49.380Z,70.69
2019-02-15T01:47:23.143Z,70.85
2019-02-15T01:49:52.510Z,71.01
2019-02-15T01:52:24.688Z,71.11
2019-02-15T01:54:56.036Z,70.79
2019-02-15T01:57:27.105Z,71.12
2019-02-15T01:59:56.584Z,71.34
2019-02-15T02:02:28.515Z,71.31
2019-02-15T02:04:57.772Z,71.44
2019-02-15T02:07:27.074Z,71.42
2019-02-15T02:09:56.303Z,71.47
2019-02-15T02:12:25.867Z,71.59
2019-02-15T02:14:55.095Z,71.87
2019-02-15T02:17:24.306Z,71.52
2019-02-15T02:19:56.355Z,71.69
2019-02-15T02:22:25.855Z,72.33
2019-02-15T02:24:55.314Z,72.02
2019-02-15T02:27:24.576Z,72.34
2019-02-15T02:29:53.985Z,71.88
2019-02-15T02:32:24.617Z,72.10
2019-02-15T02:34:53.876Z,71.99
2019-02-15T02:37:23.387Z,72.36
2019-02-15T02:39:52.614Z,72.35
2019-02-15T02:42:21.886Z,72.48
2019-02-15T02:44:51.145Z,72.18
2019-02-15T02:47:20.676Z,72.18
2019-02-15T02:49:49.945Z,72.09
2019-02-15T02:52:19.175Z,71.88
2019-02-15T02:54:48.387Z,72.12
2019-02-15T02:57:17.936Z,72.25
2019-02-15T02:59:47.171Z,72.08
2019-02-15T03:02:22.025Z,71.88
2019-02-15T03:04:51.552Z,71.87
2019-02-15T03:07:20.770Z,72.01
2019-02-15T03:09:50.046Z,71.85
2019-02-15T03:12:19.404Z,72.01
2019-02-15T03:14:49.179Z,71.86
2019-02-15T03:17:18.930Z,71.78
2019-02-15T03:19:48.138Z,71.87
2019-02-15T03:22:17.768Z,71.87
2019-02-15T03:24:47.083Z,71.54
2019-02-15T03:27:17.205Z,71.82
2019-02-15T03:29:46.478Z,72.09
2019-02-15T03:32:15.748Z,71.98
2019-02-15T03:34:45.276Z,71.80
2019-02-15T03:37:33.628Z,71.88
2019-02-15T03:40:08.252Z,72.10
2019-02-15T03:42:37.523Z,72.19
2019-02-15T03:45:06.934Z,72.15
2019-02-15T03:47:36.444Z,72.12
2019-02-15T03:50:08.762Z,72.28
2019-02-15T03:52:38.040Z,72.14
2019-02-15T03:55:07.286Z,72.29
2019-02-15T03:57:36.831Z,72.33
2019-02-15T04:00:11.040Z,72.39
2019-02-15T04:02:40.544Z,72.39
2019-02-15T04:05:09.877Z,72.65
2019-02-15T04:07:39.176Z,72.66
2019-02-15T04:10:09.362Z,72.71
2019-02-15T04:12:38.973Z,72.59
2019-02-15T04:15:09.000Z,72.86
2019-02-15T04:17:38.361Z,72.94
2019-02-15T04:20:08.851Z,72.78
2019-02-15T04:22:38.451Z,72.93
2019-02-15T04:25:07.835Z,72.55
2019-02-15T04:27:37.475Z,72.65
2019-02-15T04:30:09.092Z,72.78
2019-02-15T04:32:38.447Z,73.05
2019-02-15T04:35:07.965Z,73.35
2019-02-15T04:37:37.223Z,72.57
2019-02-15T04:40:07.505Z,72.57
2019-02-15T04:42:36.731Z,72.84
2019-02-15T04:45:06.459Z,72.84
2019-02-15T04:47:35.907Z,72.66
2019-02-15T04:50:09.889Z,72.66
2019-02-15T04:52:39.448Z,72.45
2019-02-15T04:55:08.709Z,72.45
2019-02-15T04:57:37.910Z,72.75
2019-02-15T05:00:07.462Z,73.00
2019-02-15T05:02:36.985Z,73.22
2019-02-15T05:05:06.249Z,72.81
2019-02-15T05:07:35.588Z,72.81
2019-02-15T05:10:07.170Z,73.30
2019-02-15T05:12:36.702Z,73.03
2019-02-15T05:15:06.339Z,73.10
2019-02-15T05:17:35.599Z,73.17
2019-02-15T05:20:05.856Z,73.49
2019-02-15T05:22:35.128Z,72.96
2019-02-15T05:25:04.700Z,73.32
2019-02-15T05:27:33.948Z,72.82
2019-02-15T05:30:05.540Z,73.09
2019-02-15T05:32:35.049Z,73.95
2019-02-15T05:35:04.316Z,73.95
2019-02-15T05:37:33.588Z,73.71
2019-02-15T05:40:03.539Z,74.04
2019-02-15T05:42:33.069Z,73.49
2019-02-15T05:45:04.201Z,74.35
2019-02-15T05:47:33.329Z,74.06
2019-02-15T05:50:04.402Z,74.06
2019-02-15T05:52:33.751Z,73.66
2019-02-15T05:55:03.342Z,73.49
2019-02-15T05:57:33.005Z,73.37
2019-02-15T06:00:04.373Z,73.49
2019-02-15T06:02:33.337Z,73.61
2019-02-15T06:05:04.574Z,73.60
2019-02-15T06:07:34.071Z,72.82
2019-02-15T06:10:06.301Z,73.24
2019-02-15T06:12:35.849Z,73.30
2019-02-15T06:15:14.878Z,73.26
2019-02-15T06:17:36.909Z,72.94
2019-02-15T06:20:09.101Z,72.94
2019-02-15T06:22:38.516Z,73.36
2019-02-15T06:25:08.050Z,73.78
2019-02-15T06:27:37.416Z,73.26
2019-02-15T06:30:06.963Z,73.18
2019-02-15T06:32:36.584Z,73.18
2019-02-15T06:35:07.763Z,72.98
2019-02-15T06:37:37.331Z,72.98
2019-02-15T06:40:07.994Z,73.11
2019-02-15T06:42:37.341Z,73.54
2019-02-15T06:45:07.211Z,73.62
2019-02-15T06:47:36.810Z,73.62
2019-02-15T06:50:08.825Z,73.31
2019-02-15T06:52:38.257Z,73.43
2019-02-15T06:55:08.533Z,73.87
2019-02-15T06:57:38.623Z,73.87
2019-02-15T07:00:34.450Z,74.05
2019-02-15T07:03:15.631Z,74.05
2019-02-15T07:05:44.992Z,73.66
2019-02-15T07:15:33.150Z,74.30
2019-02-15T07:17:55.221Z,74.28
2019-02-15T07:20:24.601Z,74.28
2019-02-15T07:22:54.250Z,74.88
2019-02-15T07:25:23.529Z,74.65
2019-02-15T07:27:52.746Z,74.65
2019-02-15T07:30:22.305Z,74.32
2019-02-15T07:32:51.600Z,74.36
2019-02-15T07:35:21.476Z,74.36
2019-02-15T07:37:52.757Z,73.99
2019-02-15T07:40:22.062Z,73.39
2019-02-15T07:42:51.327Z,73.39
2019-02-15T07:45:22.675Z,73.02
2019-02-15T07:47:52.251Z,72.18
2019-02-15T07:50:21.608Z,71.21
2019-02-15T07:52:51.221Z,69.65
2019-02-15T07:55:20.761Z,68.51
2019-02-15T07:57:50.000Z,66.70
2019-02-15T08:00:19.498Z,65.38
2019-02-15T08:02:48.793Z,63.84
2019-02-15T08:05:18.016Z,61.82
2019-02-15T08:07:47.598Z,58.93
2019-02-15T08:10:17.240Z,57.39
2019-02-15T08:12:46.592Z,54.12
2019-02-15T08:15:16.811Z,51.66
2019-02-15T08:17:50.320Z,49.10
2019-02-15T08:20:20.126Z,46.33
2019-02-15T08:22:49.739Z,44.15
2019-02-15T08:25:19.162Z,41.82
2019-02-15T08:27:48.509Z,40.07
2019-02-15T08:30:18.105Z,38.23
2019-02-15T08:32:47.493Z,37.20
2019-02-15T08:35:16.736Z,36.29
2019-02-15T08:37:46.376Z,35.88
2019-02-15T08:40:22.622Z,36.07
2019-02-15T08:42:51.903Z,36.25
2019-02-15T08:45:21.435Z,36.34
2019-02-15T08:47:50.712Z,37.17
2019-02-15T08:50:19.939Z,37.65
2019-02-15T08:52:49.177Z,38.41
2019-02-15T08:55:18.523Z,38.97
2019-02-15T08:57:48.055Z,39.40
2019-02-15T09:00:17.341Z,40.06
2019-02-15T09:02:46.668Z,40.40
2019-02-15T09:05:16.226Z,40.72
2019-02-15T09:07:45.498Z,41.76
2019-02-15T09:10:14.965Z,42.27
2019-02-15T09:12:44.529Z,42.43
2019-02-15T09:15:16.528Z,42.49
2019-02-15T09:17:45.855Z,42.50
2019-02-15T09:20:15.398Z,42.81
2019-02-15T09:22:44.839Z,43.25
2019-02-15T09:25:14.187Z,43.30
2019-02-15T09:28:11.394Z,43.04
2019-02-15T09:30:40.983Z,43.06
2019-02-15T09:33:10.576Z,42.75
2019-02-15T09:35:39.863Z,42.55
2019-02-15T09:38:09.145Z,42.34
2019-02-15T09:40:38.751Z,41.77
2019-02-15T09:43:08.866Z,41.08
2019-02-15T09:45:38.204Z,41.05
2019-02-15T09:48:07.733Z,40.54
2019-02-15T09:50:37.082Z,40.06
2019-02-15T09:53:06.375Z,39.60
2019-02-15T09:55:35.916Z,38.67
2019-02-15T09:58:07.996Z,38.41
2019-02-15T10:00:37.348Z,37.68
2019-02-15T10:03:06.918Z,37.04
2019-02-15T10:05:36.165Z,36.60
2019-02-15T10:08:08.538Z,36.00
2019-02-15T10:10:38.074Z,35.73
2019-02-15T10:13:07.342Z,35.19
2019-02-15T10:15:36.618Z,34.92
2019-02-15T10:18:06.873Z,34.37
2019-02-15T10:20:36.119Z,33.92
2019-02-15T10:23:05.456Z,33.57
2019-02-15T10:25:34.996Z,33.15
2019-02-15T10:28:06.065Z,32.78
2019-02-15T10:30:35.330Z,32.73
2019-02-15T10:33:04.696Z,32.35
2019-02-15T10:35:33.927Z,31.94
2019-02-15T10:38:06.288Z,31.56
2019-02-15T10:40:35.508Z,30.97
2019-02-15T10:43:05.209Z,30.83
2019-02-15T10:45:35.398Z,30.29
2019-02-15T10:48:07.490Z,29.91
2019-02-15T10:50:37.040Z,29.42
2019-02-15T10:53:06.404Z,29.38
2019-02-15T10:55:35.658Z,29.06
2019-02-15T10:58:06.060Z,28.68
2019-02-15T11:00:35.419Z,28.31
2019-02-15T11:03:04.967Z,27.74
2019-02-15T11:05:34.576Z,27.40
2019-02-15T11:08:06.921Z,27.03
2019-02-15T11:10:36.213Z,26.49
2019-02-15T11:13:05.830Z,25.90
2019-02-15T11:15:35.314Z,25.63
2019-02-15T11:18:06.106Z,25.67
2019-02-15T11:20:35.680Z,25.36
2019-02-15T11:23:05.400Z,24.98
2019-02-15T11:25:34.732Z,24.82
2019-02-15T11:28:05.628Z,24.60
2019-02-15T11:30:35.038Z,24.18
2019-02-15T11:33:04.957Z,24.05
2019-02-15T11:35:34.484Z,23.98
2019-02-15T11:38:04.965Z,24.02
2019-02-15T11:40:34.278Z,23.61
2019-02-15T11:43:03.885Z,23.46
2019-02-15T11:45:33.205Z,23.49
2019-02-15T11:48:04.253Z,23.41
2019-02-15T11:50:33.807Z,23.29
2019-02-15T11:53:03.383Z,23.70
2019-02-15T11:55:33.013Z,23.45
2019-02-15T11:58:04.939Z,23.68
2019-02-15T12:00:35.065Z,23.37
2019-02-15T12:03:04.580Z,23.82
2019-02-15T12:05:34.362Z,23.95
2019-02-15T12:08:06.771Z,23.38
2019-02-15T12:10:36.058Z,23.43
2019-02-15T12:13:05.338Z,23.30
2019-02-15T12:15:34.730Z,23.85
2019-02-15T12:18:07.634Z,23.62
2019-02-15T12:20:36.895Z,23.84
2019-02-15T12:23:06.246Z,24.02
2019-02-15T12:25:35.854Z,24.09
2019-02-15T12:28:13.519Z,23.96
2019-02-15T12:30:42.992Z,23.83
2019-02-15T12:33:12.574Z,23.63
2019-02-15T12:35:41.816Z,23.60
2019-02-15T12:38:11.047Z,23.49
2019-02-15T12:40:46.826Z,23.60
2019-02-15T12:43:16.096Z,23.25
2019-02-15T12:45:45.360Z,23.15
2019-02-15T12:48:15.141Z,22.84
2019-02-15T12:50:44.683Z,22.53
2019-02-15T12:53:14.037Z,23.24
2019-02-15T12:55:43.806Z,22.66
2019-02-15T12:58:13.056Z,23.00
2019-02-15T13:00:42.340Z,22.66
2019-02-15T13:03:12.164Z,22.61
2019-02-15T13:05:41.949Z,22.54
2019-02-15T13:08:11.324Z,22.85
2019-02-15T13:10:42.109Z,22.71
2019-02-15T13:13:11.422Z,22.43
2019-02-15T13:15:40.703Z,22.29
2019-02-15T13:18:10.358Z,22.39
2019-02-15T13:20:39.720Z,22.80
2019-02-15T13:23:09.038Z,22.63
2019-02-15T13:25:38.645Z,22.55
2019-02-15T13:28:07.929Z,22.43
2019-02-15T13:30:37.303Z,22.46
2019-02-15T13:33:06.879Z,22.42
2019-02-15T13:35:36.259Z,22.34
2019-02-15T13:38:08.539Z,22.05
2019-02-15T13:40:37.858Z,22.40
2019-02-15T13:43:07.149Z,22.14
2019-02-15T13:45:36.516Z,22.18
2019-02-15T13:48:06.149Z,22.27
2019-02-15T13:50:35.812Z,21.84
2019-02-15T13:53:05.935Z,22.12
2019-02-15T13:55:35.212Z,22.52
2019-02-15T13:58:08.102Z,22.91
2019-02-15T14:00:37.374Z,22.77
2019-02-15T14:03:06.808Z,22.94
2019-02-15T14:05:36.451Z,23.14
2019-02-15T14:08:08.577Z,23.50
2019-02-15T14:10:38.042Z,24.11
2019-02-15T14:13:07.597Z,25.32
2019-02-15T14:15:37.056Z,26.07
2019-02-15T14:18:09.158Z,27.01
2019-02-15T14:20:39.908Z,27.85
2019-02-15T14:23:09.189Z,28.30
2019-02-15T14:25:38.505Z,28.74
2019-02-15T14:28:08.137Z,29.55
2019-02-15T14:30:37.407Z,30.52
2019-02-15T14:33:06.832Z,30.83
2019-02-15T14:35:36.526Z,31.22
2019-02-15T14:38:06.695Z,31.54
2019-02-15T14:40:36.094Z,31.62
2019-02-15T14:43:06.700Z,32.10
2019-02-15T14:45:35.950Z,32.47
2019-02-15T14:48:06.051Z,32.62
2019-02-15T14:50:35.782Z,33.00
2019-02-15T14:53:05.040Z,33.27
2019-02-15T14:55:34.450Z,33.31
2019-02-15T14:58:07.991Z,33.35
2019-02-15T15:00:37.240Z,33.74
2019-02-15T15:03:06.657Z,34.06
2019-02-15T15:05:36.342Z,33.82
2019-02-15T15:08:08.478Z,33.75
2019-02-15T15:10:37.778Z,34.23
2019-02-15T15:13:07.393Z,34.20
2019-02-15T15:15:36.818Z,34.71
2019-02-15T15:18:13.206Z,35.48
2019-02-15T15:20:40.308Z,35.88
2019-02-15T15:23:09.784Z,35.98
2019-02-15T15:25:39.186Z,36.11
2019-02-15T15:28:09.332Z,36.29
2019-02-15T15:30:38.771Z,36.45
2019-02-15T15:33:08.250Z,36.78
2019-02-15T15:35:38.148Z,37.37
2019-02-15T15:38:07.644Z,37.72
2019-02-15T15:40:37.762Z,38.64
2019-02-15T15:43:08.489Z,38.93
2019-02-15T15:45:37.946Z,39.09
2019-02-15T15:48:07.645Z,39.27
2019-02-15T15:50:37.382Z,39.30
2019-02-15T15:53:07.891Z,39.10
2019-02-15T15:55:37.701Z,38.89
2019-02-15T15:58:08.852Z,38.44
2019-02-15T16:00:39.312Z,38.04
2019-02-15T16:03:08.806Z,37.63
2019-02-15T16:05:39.461Z,37.34
2019-02-15T16:08:08.990Z,37.27
2019-02-15T16:10:38.539Z,37.59
2019-02-15T16:13:08.208Z,38.13
2019-02-15T16:15:37.690Z,38.85
2019-02-15T16:18:07.375Z,39.51
2019-02-15T16:20:37.047Z,40.11
2019-02-15T16:23:06.731Z,40.58
2019-02-15T16:25:36.212Z,41.08
2019-02-15T16:28:09.496Z,41.52
2019-02-15T16:30:39.029Z,42.00
2019-02-15T16:33:10.505Z,42.39
2019-02-15T16:35:40.357Z,42.72
2019-02-15T16:38:09.973Z,43.06
2019-02-15T16:40:39.546Z,43.36
2019-02-15T16:43:09.390Z,43.61
2019-02-15T16:45:38.955Z,43.94
2019-02-15T16:48:08.654Z,44.17
2019-02-15T16:50:39.885Z,44.66
2019-02-15T16:53:09.338Z,45.11
2019-02-15T16:55:38.951Z,45.28
2019-02-15T16:58:09.445Z,45.75
2019-02-15T17:00:40.002Z,45.98
2019-02-15T17:03:10.090Z,46.14
2019-02-15T17:05:40.237Z,46.35
2019-02-15T17:08:10.235Z,46.70
2019-02-15T17:10:39.938Z,46.56
2019-02-15T17:13:10.148Z,46.68
2019-02-15T17:15:39.860Z,46.88
2019-02-15T17:18:10.016Z,47.28
2019-02-15T17:20:40.045Z,47.81
2019-02-15T17:23:09.826Z,48.36
2019-02-15T17:25:39.527Z,47.96
2019-02-15T17:28:10.998Z,48.05
2019-02-15T17:30:40.778Z,48.30
2019-02-15T17:33:10.502Z,48.43
2019-02-15T17:35:40.184Z,48.50
2019-02-15T17:38:10.404Z,48.55
2019-02-15T17:40:40.634Z,48.93
2019-02-15T17:43:10.394Z,48.94
2019-02-15T17:45:47.906Z,49.19
2019-02-15T17:48:20.659Z,49.40
2019-02-15T17:50:52.592Z,49.52
2019-02-15T17:53:25.715Z,49.55
2019-02-15T17:55:57.820Z,49.56
2019-02-15T17:58:30.086Z,49.72
2019-02-15T18:01:06.876Z,49.92
2019-02-15T18:03:41.493Z,50.19
2019-02-15T18:06:14.234Z,50.35
2019-02-15T18:08:46.633Z,50.51
2019-02-15T18:11:19.076Z,50.63
2019-02-15T18:16:14.203Z,50.75
2019-02-15T18:18:43.878Z,51.00
2019-02-15T18:21:13.891Z,51.02
2019-02-15T18:23:45.031Z,51.21
2019-02-15T18:26:14.828Z,51.43
2019-02-15T18:28:44.559Z,51.57
2019-02-15T18:31:16.417Z,51.89
2019-02-15T18:33:45.984Z,51.94
2019-02-15T18:36:15.615Z,52.05
2019-02-15T18:38:45.910Z,52.12
2019-02-15T18:41:15.667Z,52.29
2019-02-15T18:43:45.949Z,52.51
2019-02-15T18:46:16.171Z,52.61
2019-02-15T18:48:45.887Z,52.83
2019-02-15T18:51:16.640Z,52.82
2019-02-15T18:53:46.785Z,53.09
2019-02-15T18:56:16.561Z,53.11
2019-02-15T18:58:46.325Z,53.23
2019-02-15T19:01:17.011Z,53.35
2019-02-15T19:03:47.053Z,53.54
2019-02-15T19:06:19.565Z,53.69
2019-02-15T19:08:50.744Z,53.65
2019-02-15T19:11:20.779Z,53.65
2019-02-15T19:13:50.485Z,53.79
2019-02-15T19:16:21.147Z,53.86
2019-02-15T19:18:50.901Z,54.09
2019-02-15T19:21:20.761Z,54.09
2019-02-15T19:23:53.981Z,54.31
2019-02-15T19:26:23.746Z,54.42
2019-02-15T19:28:53.532Z,54.54
2019-02-15T19:31:24.247Z,54.70
2019-02-15T19:33:54.452Z,54.79
2019-02-15T19:36:25.458Z,54.83
2019-02-15T19:38:55.944Z,54.81
2019-02-15T19:41:25.730Z,54.91
2019-02-15T19:43:56.676Z,54.90
2019-02-15T19:46:27.653Z,55.09
2019-02-15T19:49:01.157Z,55.14
2019-02-15T19:51:31.292Z,55.24
2019-02-15T19:54:03.540Z,55.38
2019-02-15T19:56:33.908Z,55.33
2019-02-15T19:59:04.032Z,55.45
2019-02-15T20:01:34.947Z,55.56
2019-02-15T20:04:06.426Z,55.94
2019-02-15T20:06:39.978Z,56.12
2019-02-15T20:09:10.908Z,56.37
2019-02-15T20:11:40.965Z,56.29
2019-02-15T20:14:11.528Z,56.43
2019-02-15T20:16:41.625Z,56.61
2019-02-15T20:19:11.437Z,56.81
2019-02-15T20:21:41.525Z,57.14
2019-02-15T20:24:12.386Z,57.05
2019-02-15T20:26:42.457Z,57.30
2019-02-15T20:29:12.772Z,57.63
2019-02-15T20:31:45.407Z,57.65
2019-02-15T20:34:15.138Z,57.82
2019-02-15T20:36:45.097Z,58.01
2019-02-15T20:39:15.267Z,58.19
2019-02-15T20:41:45.491Z,58.44
2019-02-15T20:44:15.944Z,58.50
2019-02-15T20:46:45.938Z,58.66
2019-02-15T20:49:16.360Z,59.09
2019-02-15T20:51:47.134Z,59.12
2019-02-15T20:54:18.187Z,59.29
2019-02-15T20:56:48.426Z,59.16
2019-02-15T20:59:20.268Z,59.10
2019-02-15T21:01:49.947Z,59.57
2019-02-15T21:04:20.020Z,59.07
2019-02-15T21:06:49.912Z,59.06
2019-02-15T21:09:22.647Z,59.09
2019-02-15T21:11:53.859Z,59.09
2019-02-15T21:14:25.996Z,59.29
2019-02-15T21:16:56.959Z,59.74
2019-02-15T21:19:31.164Z,59.44
2019-02-15T21:22:03.998Z,59.40
2019-02-15T21:24:34.905Z,59.73
2019-02-15T21:27:05.530Z,59.84
2019-02-15T21:29:37.754Z,59.90
2019-02-15T21:32:10.387Z,60.12
2019-02-15T21:34:40.363Z,60.25
2019-02-15T21:37:10.054Z,60.17
2019-02-15T21:39:40.892Z,60.35
2019-02-15T21:42:12.624Z,60.33
2019-02-15T21:44:45.360Z,60.42
2019-02-15T21:47:15.462Z,60.82
2019-02-15T21:49:45.661Z,60.88
2019-02-15T21:52:16.016Z,60.95
2019-02-15T21:54:49.451Z,61.21
2019-02-15T21:57:19.331Z,61.42
2019-02-15T21:59:48.949Z,61.63
2019-02-15T22:02:20.293Z,61.49
2019-02-15T22:04:49.978Z,61.73
2019-02-15T22:07:19.903Z,61.80
2019-02-15T22:09:49.927Z,61.84
2019-02-15T22:12:19.357Z,62.83
2019-02-15T22:14:49.785Z,63.38
2019-02-15T22:17:20.634Z,62.56
2019-02-15T22:19:50.738Z,63.76
2019-02-15T22:22:20.245Z,63.74
2019-02-15T22:24:50.143Z,64.05
2019-02-15T22:27:19.518Z,63.52
2019-02-15T22:29:48.828Z,62.93
2019-02-15T22:32:18.414Z,62.94
2019-02-15T22:34:48.138Z,63.16
2019-02-15T22:37:17.442Z,63.22
2019-02-15T22:39:46.681Z,63.03
2019-02-15T22:42:16.308Z,62.73
2019-02-15T22:44:45.621Z,62.26
2019-02-15T22:47:17.148Z,62.28
2019-02-15T22:49:49.212Z,62.23
2019-02-15T22:52:18.543Z,62.43
2019-02-15T22:54:47.747Z,62.38
2019-02-15T22:57:16.991Z,62.71
2019-02-15T22:59:46.642Z,63.92
2019-02-15T23:02:15.956Z,63.32
2019-02-15T23:04:45.191Z,63.57
2019-02-15T23:07:14.952Z,63.53
2019-02-15T23:09:44.177Z,62.79
2019-02-15T23:12:13.425Z,63.27
2019-02-15T23:14:42.986Z,63.05
2019-02-15T23:17:13.270Z,64.58
2019-02-15T23:19:42.962Z,63.16
2019-02-15T23:22:18.456Z,63.35
2019-02-15T23:24:47.903Z,63.81
2019-02-15T23:27:17.212Z,62.95
2019-02-15T23:29:47.046Z,62.56
2019-02-15T23:32:16.223Z,62.50
2019-02-15T23:34:45.449Z,62.64
2019-02-15T23:37:16.361Z,62.61
2019-02-15T23:39:46.060Z,62.50
2019-02-15T23:42:15.697Z,62.59
2019-02-15T23:44:45.017Z,62.77
2019-02-15T23:47:14.409Z,62.72
2019-02-15T23:49:43.688Z,62.72
2019-02-15T23:52:13.621Z,62.96
2019-02-15T23:54:42.874Z,62.25
2019-02-15T23:57:12.319Z,62.25
2019-02-15T23:59:41.969Z,62.06
